CheckWX is a tool to help pilots better visualize weather data.  It is not intended as a substitute for an official pre-flight weather briefing.

06:33:25 UTC

KBNW METAR
Boone Municipal Airport
Boone, Iowa, USA
Current

18 mins ago

KBNW 230615Z AUTO 34012G17KT 10SM OVC007 08/08 A3005 RMK AO2
Observed
Apr-23 @ 06:15 UTC
Wind
  • 340° at 12 KTS
  • Gusting to 17 KTS
Visibility
10 SM
Flight Rules
IFR
Cloud Levels
  • Overcast at 700' AGL
Temperature
C / 46°F
Dewpoint
C / 46°F
Humidity
100%
Altimeter
30.05" Hg
Pressure
1017.62 hPa
Previous

38 mins ago

KBNW 230555Z AUTO 34013G21KT 10SM OVC007 08/08 A3005 RMK AO2
Observed
Apr-23 @ 05:55 UTC
Wind
  • 340° at 13 KTS
  • Gusting to 21 KTS
Visibility
10 SM
Flight Rules
IFR
Cloud Levels
  • Overcast at 700' AGL
Temperature
C / 46°F
Dewpoint
C / 46°F
Humidity
100%
Altimeter
30.05" Hg
Pressure
1017.62 hPa
Previous

58 mins ago

KBNW 230535Z AUTO 34015KT 10SM OVC007 08/08 A3004 RMK AO2
Observed
Apr-23 @ 05:35 UTC
Wind
  • 340° at 15 KTS
Visibility
10 SM
Flight Rules
IFR
Cloud Levels
  • Overcast at 700' AGL
Temperature
C / 46°F
Dewpoint
C / 46°F
Humidity
100%
Altimeter
30.04" Hg
Pressure
1017.32 hPa